Pocono Summit, Pennsylvania
Current Conditions -  °F | °C
As of 2:53 AM on Saturday 29 Nov 2014 (Local Time) from KMPO Reporting Station
Clear Clear  
Wind Chill: -13°   Ceiling: Unl
Heat Index: -13°   Visibility: 10mi
Dew Point: -16°   Wind: 0mph
Humidity: 83%   Direction: NA
Pressure: 30.18"   Gusts: NA
Location:  41.11°N, 75.39°W
Report Text: KMPO 290753Z AUTO 00000KT 10SM CLR M13/M16 A3018 RMK AO2 SLP256 I1000 T11331156
Loading
Personal Weather Stations






























Interactive Weather Map New forecast layout! Learn more

10-Day Weather Forecast

Advertisements
Track Severe Weather on mobile